This is the latest recevied weather packets stored in our database for station/object KB2KRJ. If no packets are shown the sender has not sent any weather packets the latest 10 day(s).
| Time | Temp. | Humidity | Pressure | Rain* | Wind** | Luminosity | Snow |
|---|---|---|---|---|---|---|---|
| 1777664725 | 14.44° C | 42% | 1010.4 hPa | 0 mm | - | - | - |
| 1777662926 | 14.44° C | 38% | 1010.7 hPa | 0 mm | - | - | - |
| 1777654808 | 13.89° C | 42% | 1011.8 hPa | 0 mm | - | - | - |
| 1777646762 | 12.22° C | 49% | 1012.5 hPa | 0 mm | - | - | - |
| 1777643165 | 10.56° C | 51% | 1012.9 hPa | 0 mm | - | - | - |
| 1777635022 | 5.56° C | 70% | 1013.1 hPa | 0 mm | - | - | - |
| 1777632343 | 4.44° C | 66% | 1012.8 hPa | 0 mm | - | - | - |
| 1777630515 | 4.44° C | 68% | 1012.6 hPa | 0 mm | - | - | - |
| 1777629617 | 4.44° C | 67% | 1012.5 hPa | 0 mm | - | - | - |
| 1777628711 | 4.44° C | 67% | 1012.3 hPa | 0 mm | - | - | - |
| 1777627811 | 4.44° C | 67% | 1012.2 hPa | 0 mm | - | - | - |
| 1777625107 | 5° C | 68% | 1011.7 hPa | 0 mm | - | - | - |
| 1777613454 | 4.44° C | 64% | 1011.6 hPa | 0 mm | - | - | - |
| 1777611651 | 4.44° C | 65% | 1011.8 hPa | 0 mm | - | - | - |
| 1777609848 | 5° C | 67% | 1011.8 hPa | 0 mm | - | - | - |
| 1777596316 | 8.89° C | 68% | 1010.3 hPa | 0 mm | - | - | - |
| 1777593609 | 10° C | 67% | 1009.6 hPa | 0 mm | - | - | - |
| 1777589103 | 11.67° C | 67% | 1008.8 hPa | 0 mm | - | - | - |
| 1777579255 | 11.67° C | 68% | 1007.2 hPa | 0 mm | - | - | - |
| 1777578354 | 11.67° C | 68% | 1007.3 hPa | 0 mm | - | - | - |
| 1777574752 | 12.78° C | 67% | 1007.2 hPa | 0 mm | - | - | - |
| 1777573859 | 12.78° C | 67% | 1007.1 hPa | 0 mm | - | - | - |
| 1777571167 | 12.78° C | 65% | 1006.9 hPa | 0.25 mm | - | - | - |
| 1777561235 | 10.56° C | 14% | 1007.6 hPa | 0.25 mm | - | - | - |
| 1777557628 | 10° C | 16% | 1007.3 hPa | 0.25 mm | - | - | - |
* Rain latest hour (hover to see other rain measurements)
** Current wind speed in m/s (hover to see current wind gust speed)